Time;durP1;ratioP1;P1;durP2;ratioP2;P2;SDS_P1;SDS_P2;PMS_P1;PMS_P2;Temp;Humidity;BMP_temperature;BMP_pressure;BME280_temperature;BME280_humidity;BME280_pressure;Samples;Min_cycle;Max_cycle;Signal;HPM_P1;HPM_P2
2021/12/05 00:26:50;;;;;;;0.70;0.70;;;4.70;99.90;;;;;;4986701;28;20211;-65
2021/12/05 00:34:36;;;;;;;0.65;0.65;;;4.80;99.90;;;;;;5005931;28;20190;-64
2021/12/05 01:06:14;;;;;;;0.50;0.50;;;5.10;99.90;;;;;;5070510;28;20270;-65
2021/12/05 01:13:43;;;;;;;0.40;0.40;;;5.00;99.90;;;;;;5066483;28;20267;-65
2021/12/05 01:16:13;;;;;;;1.00;0.90;;;5.00;99.90;;;;;;5049056;28;20166;-69
2021/12/05 01:18:40;;;;;;;2.15;0.50;;;5.00;99.90;;;;;;5066351;28;20240;-65
2021/12/05 01:21:13;;;;;;;1.92;1.52;;;5.00;99.90;;;;;;5066639;28;20282;-65
2021/12/05 01:23:59;;;;;;;0.65;0.65;;;5.00;99.90;;;;;;5066431;28;20178;-65
2021/12/05 01:26:39;;;;;;;0.52;0.52;;;5.10;99.90;;;;;;5066056;28;20401;-64
2021/12/05 01:31:55;;;;;;;0.85;0.60;;;5.10;99.90;;;;;;5066586;28;20196;-65
2021/12/05 01:34:52;;;;;;;1.42;1.33;;;5.10;99.90;;;;;;5076430;28;20197;-65
2021/12/05 01:37:30;;;;;;;1.20;1.20;;;5.20;99.90;;;;;;5086164;28;20426;-65
2021/12/05 02:01:22;;;;;;;0.65;0.65;;;5.20;99.90;;;;;;5079217;28;20177;-64
2021/12/05 02:31:37;;;;;;;1.30;1.10;;;4.90;99.90;;;;;;5086322;28;20208;-65
2021/12/05 02:42:07;;;;;;;0.50;0.50;;;4.70;99.90;;;;;;5089050;28;20172;-65
2021/12/05 02:44:33;;;;;;;2.05;0.80;;;4.70;99.90;;;;;;5082183;28;20488;-64
2021/12/05 02:47:08;;;;;;;0.75;0.75;;;4.70;99.90;;;;;;5068472;28;20201;-64
2021/12/05 02:49:37;;;;;;;7.70;1.17;;;4.60;99.90;;;;;;5068872;28;20247;-65
2021/12/05 02:52:07;;;;;;;1.45;1.35;;;4.60;99.90;;;;;;5068906;28;20238;-65
2021/12/05 02:54:39;;;;;;;0.82;0.82;;;4.60;99.90;;;;;;5068796;28;20252;-65
2021/12/05 02:57:06;;;;;;;0.55;0.55;;;4.50;99.90;;;;;;5067191;28;20212;-64
2021/12/05 03:02:10;;;;;;;0.95;0.95;;;4.60;99.90;;;;;;5068634;28;20162;-65
2021/12/05 03:04:37;;;;;;;1.30;1.00;;;4.60;99.90;;;;;;5076444;28;20197;-64
2021/12/05 03:07:07;;;;;;;1.23;1.17;;;4.50;99.90;;;;;;5088319;28;20197;-65
2021/12/05 03:09:33;;;;;;;0.90;0.90;;;4.60;99.90;;;;;;5088593;27;20164;-64
2021/12/05 03:11:59;;;;;;;1.23;1.13;;;4.60;99.90;;;;;;5088570;28;20184;-65
2021/12/05 03:14:25;;;;;;;0.45;0.45;;;4.60;99.90;;;;;;5088482;28;20184;-64
2021/12/05 03:16:51;;;;;;;1.23;0.67;;;4.60;99.90;;;;;;5088117;28;20411;-64
2021/12/05 03:19:17;;;;;;;2.10;1.00;;;4.70;99.90;;;;;;5088044;28;20274;-64
2021/12/05 03:21:46;;;;;;;0.73;0.73;;;4.70;99.90;;;;;;5088421;28;20210;-65
2021/12/05 03:24:13;;;;;;;0.75;0.75;;;4.80;99.90;;;;;;5088313;28;20204;-65
2021/12/05 03:26:43;;;;;;;0.43;0.43;;;4.80;99.90;;;;;;5087858;28;20201;-65
2021/12/05 03:29:11;;;;;;;1.27;1.20;;;4.80;99.90;;;;;;5068207;28;20173;-64
2021/12/05 03:31:37;;;;;;;1.02;0.65;;;4.80;99.90;;;;;;5068178;28;20227;-65
2021/12/05 03:34:05;;;;;;;0.40;0.40;;;4.80;99.90;;;;;;5067889;28;20174;-64
2021/12/05 03:36:32;;;;;;;0.80;0.77;;;4.90;99.90;;;;;;5067766;28;20202;-64
2021/12/05 03:38:58;;;;;;;1.77;1.00;;;4.90;99.90;;;;;;5071255;28;20280;-64
2021/12/05 03:41:24;;;;;;;0.93;0.90;;;4.90;99.90;;;;;;5075765;28;20173;-64
2021/12/05 03:43:54;;;;;;;0.85;0.85;;;4.90;99.90;;;;;;5068029;28;20256;-64
2021/12/05 03:46:21;;;;;;;2.50;0.60;;;4.90;99.90;;;;;;5067531;28;20177;-65
2021/12/05 03:48:53;;;;;;;0.77;0.77;;;4.90;99.90;;;;;;5067752;28;20168;-64
2021/12/05 03:51:22;;;;;;;3.05;1.15;;;4.90;99.90;;;;;;5068250;28;20281;-63
2021/12/05 03:53:49;;;;;;;1.30;0.75;;;4.90;99.90;;;;;;5067597;28;20302;-64
2021/12/05 03:56:16;;;;;;;0.40;0.40;;;4.90;99.90;;;;;;5067456;28;20172;-64
2021/12/05 03:58:43;;;;;;;1.02;0.85;;;4.80;99.90;;;;;;5067607;28;20248;-64
2021/12/05 04:01:10;;;;;;;1.13;1.00;;;4.90;99.90;;;;;;5067476;28;20192;-64
2021/12/05 04:03:37;;;;;;;0.60;0.60;;;4.90;99.90;;;;;;5049803;28;20448;-64
2021/12/05 04:06:05;;;;;;;0.82;0.82;;;5.00;99.90;;;;;;5067264;28;20188;-64
2021/12/05 04:08:32;;;;;;;0.95;0.85;;;4.80;99.90;;;;;;5066742;28;20188;-64
2021/12/05 04:11:04;;;;;;;1.20;0.73;;;4.80;99.90;;;;;;5067224;28;20166;-64
2021/12/05 04:13:31;;;;;;;2.25;0.90;;;4.80;99.90;;;;;;5067247;28;20184;-64
2021/12/05 04:16:00;;;;;;;1.13;0.70;;;4.70;99.90;;;;;;5067240;28;20172;-64
2021/12/05 04:18:26;;;;;;;0.95;0.70;;;4.60;99.90;;;;;;5066947;28;20162;-64
2021/12/05 04:20:53;;;;;;;1.42;1.00;;;4.60;99.90;;;;;;5067600;28;20278;-63
2021/12/05 04:23:19;;;;;;;0.50;0.50;;;4.60;99.90;;;;;;5066967;28;20257;-63
2021/12/05 04:25:48;;;;;;;1.15;0.70;;;4.60;99.90;;;;;;5067008;28;20216;-64
2021/12/05 04:28:15;;;;;;;0.93;0.80;;;4.50;99.90;;;;;;5066768;28;20346;-64
2021/12/05 04:30:41;;;;;;;0.70;0.60;;;4.50;99.90;;;;;;5067042;28;20228;-63
2021/12/05 04:33:07;;;;;;;0.82;0.80;;;4.50;99.90;;;;;;5066963;28;20201;-65
2021/12/05 04:35:33;;;;;;;0.90;0.83;;;4.40;99.90;;;;;;5049509;28;20215;-64
2021/12/05 04:37:59;;;;;;;0.77;0.50;;;4.40;99.90;;;;;;5066674;28;20285;-65
2021/12/05 04:40:25;;;;;;;0.80;0.80;;;4.30;99.90;;;;;;5066831;28;20162;-65
2021/12/05 04:42:50;;;;;;;2.10;0.87;;;4.30;99.90;;;;;;5066693;28;20232;-65
2021/12/05 04:45:22;;;;;;;0.50;0.50;;;4.40;99.90;;;;;;5066910;28;20185;-64
2021/12/05 04:47:48;;;;;;;0.70;0.70;;;4.30;99.90;;;;;;5066420;28;20270;-64
2021/12/05 04:50:15;;;;;;;0.90;0.90;;;4.30;99.90;;;;;;5080216;28;20219;-64
2021/12/05 04:52:41;;;;;;;0.50;0.50;;;4.40;99.90;;;;;;5086802;28;20164;-64
2021/12/05 04:55:08;;;;;;;0.73;0.73;;;4.40;99.90;;;;;;5069124;28;20169;-64
2021/12/05 04:57:34;;;;;;;0.70;0.70;;;4.50;99.90;;;;;;5086618;28;20165;-63
2021/12/05 05:00:00;;;;;;;1.73;0.80;;;4.50;99.90;;;;;;5086807;28;20398;-64
2021/12/05 05:02:27;;;;;;;0.70;0.50;;;4.50;99.90;;;;;;5086555;28;20164;-65
2021/12/05 05:04:54;;;;;;;0.70;0.70;;;4.60;99.90;;;;;;5086451;28;20192;-65
2021/12/05 05:07:25;;;;;;;10.20;1.63;;;4.60;99.90;;;;;;5086313;28;20219;-64
2021/12/05 05:10:02;;;;;;;0.70;0.50;;;4.60;99.90;;;;;;5086657;28;20207;-64
2021/12/05 05:12:28;;;;;;;0.52;0.45;;;4.70;99.90;;;;;;5086776;28;20196;-65
2021/12/05 05:14:54;;;;;;;1.97;0.77;;;4.70;99.90;;;;;;5086627;28;20203;-64
2021/12/05 05:17:20;;;;;;;0.75;0.75;;;4.70;99.90;;;;;;5086191;28;20419;-64
2021/12/05 05:19:57;;;;;;;2.67;0.70;;;4.70;99.90;;;;;;5073414;28;20165;-64
2021/12/05 05:22:49;;;;;;;1.00;1.00;;;4.70;99.90;;;;;;5070670;28;20243;-64
2021/12/05 05:28:45;;;;;;;3.15;1.25;;;4.50;99.90;;;;;;5054170;28;20212;-64
2021/12/05 05:52:14;;;;;;;0.77;0.77;;;3.80;99.90;;;;;;5070155;28;20706;-63
2021/12/05 05:54:43;;;;;;;1.83;1.65;;;3.70;99.90;;;;;;5069839;28;20197;-64
2021/12/05 05:57:24;;;;;;;0.35;0.35;;;3.70;99.90;;;;;;5069680;28;20297;-64
2021/12/05 06:00:05;;;;;;;0.40;0.40;;;3.70;99.90;;;;;;5070019;28;20437;-64
2021/12/05 06:05:16;;;;;;;0.90;0.90;;;3.50;99.90;;;;;;5069849;28;20192;-64
2021/12/05 06:07:43;;;;;;;0.73;0.60;;;3.50;99.90;;;;;;5069313;28;20243;-63
2021/12/05 06:10:12;;;;;;;0.68;0.68;;;3.50;99.90;;;;;;5052047;28;20181;-64
2021/12/05 06:12:38;;;;;;;1.77;1.58;;;3.60;99.90;;;;;;5084210;28;20211;-64
2021/12/05 06:15:06;;;;;;;1.27;0.60;;;3.70;99.90;;;;;;5089630;28;20377;-64
2021/12/05 06:17:32;;;;;;;0.68;0.68;;;3.70;99.90;;;;;;5089235;28;20183;-63
2021/12/05 06:19:59;;;;;;;0.80;0.57;;;3.80;99.90;;;;;;5089588;28;20161;-64
2021/12/05 06:22:24;;;;;;;1.10;1.02;;;3.80;99.90;;;;;;5089543;28;20232;-63
2021/12/05 06:24:51;;;;;;;0.97;0.70;;;3.80;99.90;;;;;;5078928;28;20287;-63
2021/12/05 06:27:16;;;;;;;1.30;0.70;;;3.90;99.90;;;;;;5069079;28;20503;-63
2021/12/05 06:29:50;;;;;;;0.50;0.50;;;3.90;99.90;;;;;;5051782;28;20169;-64
2021/12/05 06:37:48;;;;;;;0.95;0.95;;;4.10;99.90;;;;;;5068947;28;20261;-64
2021/12/05 06:41:06;;;;;;;0.65;0.65;;;4.00;99.90;;;;;;5069198;28;20308;-64
2021/12/05 06:45:57;;;;;;;0.75;0.75;;;4.00;99.90;;;;;;5060636;28;20205;-65
2021/12/05 06:48:48;;;;;;;0.40;0.40;;;3.90;99.90;;;;;;5070270;28;20216;-65
2021/12/05 06:51:20;;;;;;;0.47;0.45;;;3.90;99.90;;;;;;5088546;28;20236;-65
2021/12/05 06:53:46;;;;;;;0.95;0.50;;;3.80;99.90;;;;;;5088944;28;20201;-64
2021/12/05 06:56:12;;;;;;;0.47;0.47;;;;;;;;;;5088714;28;20393;-63
2021/12/05 06:58:38;;;;;;;0.57;0.57;;;3.80;99.90;;;;;;5088650;28;20395;-63
2021/12/05 07:01:08;;;;;;;0.57;0.57;;;3.70;99.90;;;;;;5071205;28;20157;-64
2021/12/05 07:03:37;;;;;;;1.88;0.50;;;3.70;99.90;;;;;;5087466;28;20450;-63
2021/12/05 07:06:06;;;;;;;1.05;0.98;;;3.70;99.90;;;;;;5088666;28;20262;-63
2021/12/05 07:08:36;;;;;;;0.98;0.73;;;3.60;99.90;;;;;;5088413;28;20173;-63
2021/12/05 07:11:11;;;;;;;0.60;0.60;;;3.60;99.90;;;;;;5068874;28;20278;-63
2021/12/05 07:14:08;;;;;;;1.05;1.00;;;3.50;99.90;;;;;;5068232;28;20192;-64
2021/12/05 07:16:49;;;;;;;0.82;0.80;;;3.50;99.90;;;;;;5067861;28;20179;-63
2021/12/05 07:22:14;;;;;;;1.20;1.20;;;3.40;99.90;;;;;;5068486;28;20165;-64
2021/12/05 07:24:45;;;;;;;0.70;0.70;;;3.40;99.90;;;;;;5050611;28;20201;-64
2021/12/05 07:41:54;;;;;;;0.50;0.50;;;3.70;99.90;;;;;;5088085;28;20199;-64
2021/12/05 07:43:52;;;;;;;0.63;0.55;;;3.80;99.90;;;;;;5073579;28;20224;-64
2021/12/05 07:46:18;;;;;;;3.50;0.80;;;3.90;99.90;;;;;;5087833;28;20293;-64
2021/12/05 07:48:46;;;;;;;0.90;0.87;;;4.00;99.90;;;;;;5087859;28;20373;-63
2021/12/05 07:54:50;;;;;;;0.82;0.82;;;4.10;99.90;;;;;;5087472;28;20196;-64
2021/12/05 07:56:46;;;;;;;1.02;0.98;;;4.20;99.90;;;;;;5073910;28;20186;-64
2021/12/05 08:00:08;;;;;;;0.50;0.50;;;4.30;99.90;;;;;;5087695;28;20353;-64
2021/12/05 08:15:58;;;;;;;1.70;0.70;;;6.30;99.90;;;;;;5083438;28;20171;-64
2021/12/05 08:18:24;;;;;;;1.63;1.45;;;7.20;99.90;;;;;;5066993;28;20165;-64
2021/12/05 08:20:49;;;;;;;1.10;0.97;;;8.00;99.90;;;;;;5067066;28;20248;-64
2021/12/05 08:23:16;;;;;;;2.40;1.33;;;8.90;99.90;;;;;;5066853;28;20206;-65
2021/12/05 08:25:49;;;;;;;1.27;0.83;;;9.80;99.90;;;;;;5066831;28;20171;-64
2021/12/05 09:20:54;;;;;;;2.17;1.33;;;11.40;95.80;;;;;;5086690;28;20394;-64
2021/12/05 10:08:51;;;;;;;2.40;0.70;;;12.40;97.90;;;;;;5069596;28;20501;-65
2021/12/05 10:11:27;;;;;;;0.70;0.70;;;12.80;96.90;;;;;;5069691;28;20414;-65
2021/12/05 10:34:22;;;;;;;2.00;1.90;;;11.70;96.80;;;;;;5069151;28;20666;-66
2021/12/05 10:37:17;;;;;;;0.77;0.77;;;11.40;96.50;;;;;;5068978;28;20415;-66
2021/12/05 10:39:43;;;;;;;2.60;0.97;;;11.00;97.00;;;;;;5069169;28;20400;-64
2021/12/05 10:42:41;;;;;;;1.63;0.83;;;10.50;97.60;;;;;;5069114;28;20443;-64
2021/12/05 10:45:27;;;;;;;0.40;0.40;;;10.10;98.80;;;;;;5069127;28;20429;-65
2021/12/05 10:47:55;;;;;;;0.83;0.70;;;10.00;99.20;;;;;;5068741;28;20449;-64
2021/12/05 10:50:30;;;;;;;1.27;1.10;;;10.30;99.60;;;;;;5068960;28;20395;-65
2021/12/05 10:53:23;;;;;;;0.50;0.50;;;10.70;99.30;;;;;;5068855;28;20446;-65
2021/12/05 10:56:06;;;;;;;2.70;0.80;;;11.10;99.50;;;;;;5068920;28;20442;-64
2021/12/05 10:58:35;;;;;;;0.67;0.67;;;11.30;98.70;;;;;;5071958;28;20485;-65
2021/12/05 11:01:12;;;;;;;0.40;0.40;;;11.40;97.60;;;;;;5088788;28;20399;-65
2021/12/05 11:03:38;;;;;;;1.30;0.60;;;11.20;98.30;;;;;;5088625;28;20442;-64
2021/12/05 11:06:28;;;;;;;2.47;1.13;;;10.90;97.60;;;;;;5071085;28;20485;-64
2021/12/05 11:09:08;;;;;;;2.77;1.60;;;10.60;98.40;;;;;;5086851;28;20505;-65
2021/12/05 11:11:35;;;;;;;2.20;1.30;;;10.40;98.60;;;;;;5068616;28;20481;-64
2021/12/05 11:14:03;;;;;;;0.63;0.57;;;10.10;98.80;;;;;;5068332;28;20425;-64
2021/12/05 11:16:40;;;;;;;1.15;0.70;;;9.80;99.60;;;;;;5067746;28;20193;-64
2021/12/05 11:19:29;;;;;;;0.75;0.73;;;9.60;99.80;;;;;;5068877;28;21065;-62
2021/12/05 11:22:03;;;;;;;0.70;0.68;;;9.50;99.90;;;;;;5068385;28;20162;-64
2021/12/05 11:24:38;;;;;;;0.35;0.35;;;9.50;99.90;;;;;;5068146;28;20247;-64
2021/12/05 11:27:27;;;;;;;1.65;0.70;;;9.40;99.90;;;;;;5067846;28;20246;-64
2021/12/05 11:30:03;;;;;;;0.68;0.60;;;9.20;99.90;;;;;;5078238;28;20195;-64
2021/12/05 11:32:56;;;;;;;0.70;0.70;;;9.10;99.90;;;;;;5088020;28;20174;-65
2021/12/05 11:35:46;;;;;;;0.43;0.43;;;9.00;99.90;;;;;;5088160;28;20142;-64
2021/12/05 11:38:21;;;;;;;0.75;0.70;;;8.90;99.90;;;;;;5070216;28;20242;-64
2021/12/05 11:40:46;;;;;;;0.50;0.50;;;8.90;99.90;;;;;;5087599;28;20265;-66
2021/12/05 11:43:36;;;;;;;0.83;0.83;;;8.80;99.90;;;;;;5087922;28;20181;-64
2021/12/05 11:46:08;;;;;;;0.73;0.73;;;8.70;99.90;;;;;;5087832;28;20165;-65
2021/12/05 11:48:42;;;;;;;0.93;0.93;;;8.80;99.90;;;;;;5087524;28;20421;-64
2021/12/05 11:51:17;;;;;;;0.40;0.30;;;8.80;99.90;;;;;;5087837;28;20167;-64
2021/12/05 11:54:08;;;;;;;2.90;1.77;;;8.80;99.90;;;;;;5087668;28;20199;-64
2021/12/05 11:56:34;;;;;;;1.05;0.65;;;8.70;99.90;;;;;;5078803;28;20362;-64
2021/12/05 11:59:11;;;;;;;3.80;1.33;;;8.70;99.90;;;;;;5067820;28;20173;-64
2021/12/05 12:01:52;;;;;;;1.30;0.60;;;8.60;99.90;;;;;;5067478;28;20157;-64
2021/12/05 12:04:24;;;;;;;0.47;0.47;;;8.50;99.90;;;;;;5067313;28;20205;-65
2021/12/05 12:07:11;;;;;;;1.52;1.05;;;8.50;99.90;;;;;;5067211;28;20203;-64
2021/12/05 12:09:37;;;;;;;1.15;0.57;;;8.40;99.90;;;;;;5067529;28;20169;-64
2021/12/05 12:12:03;;;;;;;0.88;0.50;;;8.40;99.90;;;;;;5081846;28;20176;-63
2021/12/05 12:14:30;;;;;;;0.70;0.70;;;8.30;99.90;;;;;;5087503;28;20196;-65
2021/12/05 12:16:57;;;;;;;1.33;0.82;;;8.30;99.90;;;;;;5087414;28;20268;-64
2021/12/05 12:19:23;;;;;;;1.85;1.23;;;8.20;99.90;;;;;;5087997;28;20369;-64
2021/12/05 12:21:53;;;;;;;0.43;0.43;;;8.10;99.90;;;;;;5089007;28;20207;-64
2021/12/05 12:24:19;;;;;;;0.52;0.50;;;8.00;99.90;;;;;;5088418;28;20226;-64
2021/12/05 12:26:45;;;;;;;0.50;0.50;;;8.00;99.90;;;;;;5086790;28;20197;-64
2021/12/05 12:29:12;;;;;;;0.50;0.50;;;7.90;99.90;;;;;;5070046;28;20172;-63
2021/12/05 12:31:44;;;;;;;0.40;0.40;;;7.80;99.90;;;;;;5070934;28;20180;-63
2021/12/05 12:34:18;;;;;;;0.43;0.43;;;7.70;99.90;;;;;;5070691;28;20187;-64
2021/12/05 12:36:49;;;;;;;0.60;0.60;;;7.60;99.90;;;;;;5087108;28;20167;-64
2021/12/05 12:39:21;;;;;;;2.05;1.60;;;7.60;99.90;;;;;;5088354;28;20167;-64
2021/12/05 12:42:12;;;;;;;0.50;0.50;;;7.60;99.90;;;;;;5087080;28;20183;-64
2021/12/05 12:45:06;;;;;;;0.75;0.75;;;7.60;99.90;;;;;;5087083;28;20205;-65
2021/12/05 12:47:37;;;;;;;1.05;0.95;;;7.60;99.90;;;;;;5086675;28;20198;-62
2021/12/05 12:50:36;;;;;;;0.98;0.77;;;7.60;99.90;;;;;;5086835;28;20214;-63
2021/12/05 12:53:22;;;;;;;1.45;1.35;;;7.60;99.90;;;;;;5086795;28;20204;-65
2021/12/05 12:56:05;;;;;;;1.00;0.88;;;7.60;99.90;;;;;;5086548;28;20179;-64
2021/12/05 12:58:43;;;;;;;1.20;1.20;;;7.50;99.90;;;;;;5086658;28;20157;-63
2021/12/05 13:01:19;;;;;;;0.50;0.50;;;7.50;99.90;;;;;;5066529;28;20180;-63
2021/12/05 13:04:32;;;;;;;2.65;1.17;;;7.40;99.90;;;;;;5049238;28;20224;-67
2021/12/05 13:12:51;;;;;;;2.33;0.90;;;7.40;99.90;;;;;;5086999;28;20168;-65
2021/12/05 13:15:33;;;;;;;0.60;0.60;;;7.30;99.90;;;;;;5087379;28;20224;-65
2021/12/05 13:18:01;;;;;;;0.70;0.70;;;7.20;99.90;;;;;;5086486;28;20403;-64
2021/12/05 13:20:41;;;;;;;0.60;0.60;;;7.20;99.90;;;;;;5086821;28;20183;-64
2021/12/05 13:23:08;;;;;;;0.60;0.60;;;7.20;99.90;;;;;;5086767;28;20195;-64
2021/12/05 13:26:01;;;;;;;1.02;0.82;;;7.20;99.90;;;;;;5086392;28;20169;-64
2021/12/05 13:28:29;;;;;;;0.85;0.85;;;7.20;99.90;;;;;;5073932;28;20231;-65
2021/12/05 13:30:56;;;;;;;1.80;0.60;;;7.30;99.90;;;;;;5087069;28;20190;-64
2021/12/05 13:33:24;;;;;;;1.00;1.00;;;7.30;99.90;;;;;;5086624;28;20388;-63
2021/12/05 13:35:57;;;;;;;1.60;1.50;;;7.40;99.90;;;;;;5068388;28;20176;-63
2021/12/05 13:38:40;;;;;;;0.70;0.70;;;7.40;99.90;;;;;;5085344;28;20316;-63
2021/12/05 13:41:14;;;;;;;1.05;0.70;;;7.60;99.90;;;;;;5087935;28;20199;-64
2021/12/05 13:43:41;;;;;;;0.82;0.73;;;7.70;99.90;;;;;;5090040;28;20336;-63
2021/12/05 13:46:29;;;;;;;0.70;0.70;;;7.80;99.90;;;;;;5089946;28;20198;-63
2021/12/05 13:48:54;;;;;;;0.70;0.70;;;7.80;99.90;;;;;;5089940;28;20187;-62
2021/12/05 13:51:24;;;;;;;0.77;0.50;;;7.80;99.90;;;;;;5090134;28;20187;-64
2021/12/05 13:53:51;;;;;;;0.65;0.65;;;7.80;99.90;;;;;;5081742;28;20193;-65
2021/12/05 13:56:26;;;;;;;0.93;0.93;;;7.80;99.90;;;;;;5069654;28;20216;-63
2021/12/05 13:58:59;;;;;;;1.58;0.50;;;7.70;99.90;;;;;;5069892;28;20160;-63
2021/12/05 14:01:35;;;;;;;0.50;0.50;;;7.80;99.90;;;;;;5069845;28;20185;-65
2021/12/05 14:04:11;;;;;;;0.40;0.40;;;7.70;99.90;;;;;;5069569;28;20312;-62
2021/12/05 14:06:49;;;;;;;0.47;0.45;;;7.60;99.90;;;;;;5069400;28;20179;-65
2021/12/05 14:09:23;;;;;;;0.68;0.68;;;7.70;99.90;;;;;;5083011;28;20190;-63
2021/12/05 14:11:57;;;;;;;0.60;0.52;;;7.60;99.90;;;;;;5089762;28;20243;-66
2021/12/05 14:14:35;;;;;;;1.58;0.60;;;7.50;99.90;;;;;;5089446;28;20198;-66
2021/12/05 14:17:14;;;;;;;0.40;0.40;;;7.40;99.90;;;;;;5071888;28;20235;-64
2021/12/05 14:19:43;;;;;;;0.35;0.35;;;7.20;99.90;;;;;;5068749;28;20369;-62
2021/12/05 14:22:11;;;;;;;1.35;1.30;;;7.10;99.90;;;;;;5078150;28;20183;-65
2021/12/05 14:24:41;;;;;;;4.65;2.75;;;6.90;99.90;;;;;;5070304;28;20191;-64
2021/12/05 14:27:10;;;;;;;16.15;5.28;;;6.80;99.90;;;;;;5069064;28;20211;-62
2021/12/05 14:29:40;;;;;;;14.60;6.57;;;6.60;99.90;;;;;;5069306;28;20419;-64
2021/12/05 14:32:20;;;;;;;16.48;6.68;;;6.40;99.90;;;;;;5069332;28;20402;-65
2021/12/05 14:34:47;;;;;;;19.48;10.90;;;6.20;99.90;;;;;;5078737;28;20194;-63
2021/12/05 14:37:19;;;;;;;28.52;17.58;;;6.10;99.90;;;;;;5089076;28;20203;-63
2021/12/05 14:39:47;;;;;;;17.35;7.32;;;6.00;99.90;;;;;;5089234;28;20167;-63
2021/12/05 14:42:22;;;;;;;15.07;10.55;;;5.90;99.90;;;;;;5088969;28;20161;-63
2021/12/05 14:44:52;;;;;;;11.32;7.65;;;5.80;99.90;;;;;;5089018;28;20183;-64
2021/12/05 14:47:21;;;;;;;20.67;14.10;;;5.60;99.90;;;;;;5088742;28;20317;-63
2021/12/05 14:49:56;;;;;;;3.72;3.25;;;5.50;99.90;;;;;;5071181;28;20265;-63
2021/12/05 14:52:28;;;;;;;2.20;1.50;;;5.40;99.90;;;;;;5088720;28;20336;-63
2021/12/05 14:54:55;;;;;;;4.68;4.20;;;5.30;99.90;;;;;;5088855;28;20370;-64
2021/12/05 14:57:24;;;;;;;2.17;1.65;;;5.20;99.90;;;;;;5088452;28;20176;-63
2021/12/05 14:59:58;;;;;;;2.55;2.35;;;5.20;99.90;;;;;;5088742;28;20276;-64
2021/12/05 15:02:24;;;;;;;3.75;2.47;;;5.10;99.90;;;;;;5088722;28;20180;-62
2021/12/05 15:04:52;;;;;;;2.47;2.05;;;5.10;99.90;;;;;;5056341;28;20406;-63
2021/12/05 15:07:20;;;;;;;5.57;2.10;;;5.00;99.90;;;;;;5068163;28;20433;-64
2021/12/05 15:09:49;;;;;;;1.80;1.20;;;5.00;99.90;;;;;;5068513;28;20162;-63
2021/12/05 15:12:19;;;;;;;1.85;1.75;;;5.10;99.90;;;;;;5068656;28;20233;-64
2021/12/05 15:14:48;;;;;;;1.10;1.10;;;5.10;99.90;;;;;;5077222;28;20298;-64
2021/12/05 15:17:21;;;;;;;6.00;3.08;;;5.00;99.90;;;;;;5087984;28;20174;-65
2021/12/05 15:19:55;;;;;;;4.55;2.08;;;5.00;99.90;;;;;;5088374;28;20176;-64
2021/12/05 15:22:22;;;;;;;3.28;2.88;;;5.10;99.90;;;;;;5088581;28;20457;-64
2021/12/05 15:24:54;;;;;;;2.05;1.73;;;5.10;99.90;;;;;;5088296;28;20287;-64
2021/12/05 15:27:23;;;;;;;2.63;2.53;;;5.00;99.90;;;;;;5087641;28;20328;-63
2021/12/05 15:29:55;;;;;;;1.42;1.10;;;5.00;99.90;;;;;;5075841;28;20236;-62
2021/12/05 15:32:25;;;;;;;1.10;1.00;;;5.00;99.90;;;;;;5085810;28;20169;-63
2021/12/05 15:35:00;;;;;;;2.10;2.00;;;5.00;99.90;;;;;;5088135;28;20226;-64
2021/12/05 15:37:27;;;;;;;0.85;0.85;;;5.00;99.90;;;;;;5087696;28;20168;-63
2021/12/05 15:39:55;;;;;;;0.80;0.80;;;5.00;99.90;;;;;;5087894;28;20176;-64
2021/12/05 15:42:30;;;;;;;1.65;1.55;;;5.00;99.90;;;;;;5088071;28;20181;-64
2021/12/05 15:45:00;;;;;;;1.10;1.00;;;5.00;99.90;;;;;;5086969;28;20188;-63
2021/12/05 15:47:29;;;;;;;1.85;1.65;;;5.00;99.90;;;;;;5087405;28;20280;-63
2021/12/05 15:50:01;;;;;;;2.38;1.98;;;5.00;99.90;;;;;;5088520;28;20193;-63
2021/12/05 15:52:39;;;;;;;1.25;1.00;;;5.00;99.90;;;;;;5069716;28;20252;-63
2021/12/05 15:55:15;;;;;;;2.05;1.77;;;5.00;99.90;;;;;;5087622;28;20242;-67
2021/12/05 15:57:45;;;;;;;1.70;1.20;;;5.00;99.90;;;;;;5087466;28;20319;-66
2021/12/05 16:00:24;;;;;;;1.23;1.15;;;5.10;99.90;;;;;;5087645;28;20381;-66
2021/12/05 16:03:03;;;;;;;1.38;1.30;;;5.00;99.90;;;;;;5087248;28;20210;-65
2021/12/05 16:05:31;;;;;;;1.88;1.77;;;4.90;99.90;;;;;;5087307;28;20176;-67
2021/12/05 16:08:07;;;;;;;1.35;1.25;;;4.80;99.90;;;;;;5072605;28;20220;-65
2021/12/05 16:10:35;;;;;;;1.75;1.65;;;4.70;99.90;;;;;;5067279;28;20295;-66
2021/12/05 16:13:10;;;;;;;1.13;1.02;;;4.70;99.90;;;;;;5067174;28;20179;-65
2021/12/05 16:15:36;;;;;;;2.88;1.40;;;4.60;99.90;;;;;;5067209;28;20266;-67
2021/12/05 16:18:02;;;;;;;3.60;1.52;;;4.70;99.90;;;;;;5066909;28;20160;-65
2021/12/05 16:20:35;;;;;;;2.70;2.50;;;4.60;99.90;;;;;;5067258;28;20303;-67
2021/12/05 16:23:10;;;;;;;4.43;2.45;;;4.60;99.90;;;;;;5067136;28;20544;-67
2021/12/05 16:25:40;;;;;;;2.33;2.15;;;4.50;99.90;;;;;;5067181;28;20161;-65
2021/12/05 16:28:12;;;;;;;2.38;2.17;;;4.50;99.90;;;;;;5066578;28;20204;-67
2021/12/05 16:30:44;;;;;;;1.95;1.70;;;4.50;99.90;;;;;;5049678;28;20166;-68
2021/12/05 16:33:11;;;;;;;2.53;1.52;;;4.40;99.90;;;;;;5067179;28;20185;-67
2021/12/05 16:35:48;;;;;;;1.85;1.63;;;4.50;99.90;;;;;;5066946;28;20171;-65
2021/12/05 16:38:20;;;;;;;2.40;1.95;;;4.40;99.90;;;;;;5066643;28;20346;-67
2021/12/05 16:40:57;;;;;;;2.65;2.20;;;4.40;99.90;;;;;;5066903;28;20170;-67
2021/12/05 16:43:23;;;;;;;2.00;1.90;;;4.40;99.90;;;;;;5066941;28;20189;-65
2021/12/05 16:45:54;;;;;;;2.33;2.13;;;4.40;99.90;;;;;;5066878;28;20293;-67
2021/12/05 16:48:19;;;;;;;2.00;1.90;;;4.40;99.90;;;;;;5066423;28;20277;-66
2021/12/05 16:50:45;;;;;;;3.33;2.43;;;4.40;99.90;;;;;;5066775;28;20177;-65
2021/12/05 16:53:13;;;;;;;2.97;2.57;;;4.40;99.90;;;;;;5049223;28;20197;-66
2021/12/05 16:55:44;;;;;;;3.30;2.67;;;4.40;99.90;;;;;;5066602;28;20178;-66
2021/12/05 16:58:17;;;;;;;3.30;3.00;;;4.40;99.90;;;;;;5066459;28;20331;-66
2021/12/05 17:00:51;;;;;;;2.13;1.92;;;4.30;99.90;;;;;;5084025;28;20244;-66
2021/12/05 17:03:26;;;;;;;2.30;2.10;;;4.30;99.90;;;;;;5087853;28;20203;-67
2021/12/05 17:05:55;;;;;;;5.40;2.15;;;4.30;99.90;;;;;;5092042;28;20188;-66
2021/12/05 17:08:26;;;;;;;2.90;2.58;;;4.20;99.90;;;;;;5087136;28;20231;-68
2021/12/05 17:11:09;;;;;;;2.55;2.35;;;4.30;99.90;;;;;;5086933;28;20157;-66
2021/12/05 17:13:42;;;;;;;1.33;1.15;;;4.30;99.90;;;;;;5086396;28;20192;-67
2021/12/05 17:16:10;;;;;;;2.30;1.50;;;4.30;99.90;;;;;;5088334;28;20169;-66
2021/12/05 17:18:41;;;;;;;1.40;1.30;;;4.30;99.90;;;;;;5090482;28;20277;-66
2021/12/05 17:21:15;;;;;;;2.08;1.58;;;4.40;99.90;;;;;;5090783;28;20168;-66
2021/12/05 17:23:47;;;;;;;1.70;1.60;;;4.40;99.90;;;;;;5072969;28;20196;-66
2021/12/05 17:26:24;;;;;;;2.30;2.08;;;4.40;99.90;;;;;;5090567;28;20164;-67
2021/12/05 17:28:57;;;;;;;2.53;2.33;;;4.40;99.90;;;;;;5084064;28;20407;-65
2021/12/05 17:31:29;;;;;;;2.30;1.92;;;4.40;99.90;;;;;;5070373;28;20166;-65
2021/12/05 17:33:58;;;;;;;2.80;2.58;;;4.40;99.90;;;;;;5070323;28;20293;-66
2021/12/05 17:36:26;;;;;;;4.43;2.92;;;4.40;99.90;;;;;;5069990;28;20165;-66
2021/12/05 17:38:55;;;;;;;1.83;1.73;;;4.40;99.90;;;;;;5070199;28;20185;-66
2021/12/05 17:41:21;;;;;;;12.07;3.10;;;4.30;99.90;;;;;;5052602;28;20385;-66
2021/12/05 17:43:47;;;;;;;2.28;1.98;;;4.30;99.90;;;;;;5070087;28;20200;-66
2021/12/05 17:46:14;;;;;;;1.58;1.48;;;4.30;99.90;;;;;;5069996;28;20170;-68
2021/12/05 17:48:40;;;;;;;2.25;2.15;;;4.40;99.90;;;;;;5069573;28;20208;-63
2021/12/05 17:51:06;;;;;;;2.38;2.20;;;4.30;99.90;;;;;;5070051;28;20200;-65
2021/12/05 17:53:36;;;;;;;2.45;2.25;;;4.40;99.90;;;;;;5070669;28;20192;-65
2021/12/05 17:56:10;;;;;;;3.45;2.95;;;4.40;99.90;;;;;;5069908;28;20175;-65
2021/12/05 17:58:52;;;;;;;1.70;1.60;;;4.40;99.90;;;;;;5077667;28;20259;-64
2021/12/05 18:04:02;;;;;;;6.70;2.00;;;4.40;99.90;;;;;;5089699;28;20207;-67
2021/12/05 18:06:29;;;;;;;2.05;1.95;;;4.40;99.90;;;;;;5089256;28;20170;-68
2021/12/05 18:08:54;;;;;;;1.73;1.63;;;4.40;99.90;;;;;;5089723;28;20165;-68
2021/12/05 18:11:23;;;;;;;2.40;2.10;;;4.40;99.90;;;;;;5089740;28;20438;-66
2021/12/05 18:13:54;;;;;;;2.10;2.00;;;4.40;99.90;;;;;;5077042;28;20205;-66
2021/12/05 18:16:23;;;;;;;2.10;1.85;;;4.30;99.90;;;;;;5051799;28;20208;-68
2021/12/05 18:19:14;;;;;;;2.97;2.50;;;4.30;99.90;;;;;;5069466;28;20207;-71
2021/12/05 18:21:41;;;;;;;2.50;2.28;;;4.40;99.90;;;;;;5069064;28;20291;-69
2021/12/05 18:24:14;;;;;;;1.90;1.80;;;4.30;99.90;;;;;;5059728;28;20192;-67
2021/12/05 18:26:41;;;;;;;1.83;1.73;;;4.30;99.90;;;;;;5088368;28;20320;-69
2021/12/05 18:29:09;;;;;;;3.28;1.25;;;4.30;99.90;;;;;;5088901;28;20400;-67
2021/12/05 18:31:37;;;;;;;2.40;2.20;;;4.30;99.90;;;;;;5088927;28;20169;-69
2021/12/05 18:34:06;;;;;;;6.57;3.42;;;4.30;99.90;;;;;;5089093;28;20470;-68
2021/12/05 18:36:34;;;;;;;2.63;2.38;;;4.20;99.90;;;;;;5088978;28;20412;-70
2021/12/05 18:39:02;;;;;;;2.05;1.95;;;4.20;99.90;;;;;;5059890;28;20308;-67
2021/12/05 18:41:30;;;;;;;3.70;3.45;;;4.20;99.90;;;;;;5069037;28;20173;-67
2021/12/05 18:43:57;;;;;;;2.70;2.60;;;4.20;99.90;;;;;;5068796;28;20313;-67